sensor_id;sensor_type;location;lat;lon;timestamp;pressure;altitude;pressure_sealevel;temperature;humidity
45369;BME280;51342;55.250;37.668;2023-04-06T00:04:06;100169.06;;;4.99;69.08
45369;BME280;51342;55.250;37.668;2023-04-06T00:06:37;100174.03;;;4.98;69.06
45369;BME280;51342;55.250;37.668;2023-04-06T00:09:09;100170.56;;;4.97;68.96
45369;BME280;51342;55.250;37.668;2023-04-06T00:11:40;100165.03;;;4.93;69.24
45369;BME280;51342;55.250;37.668;2023-04-06T00:14:12;100168.75;;;4.86;69.34
45369;BME280;51342;55.250;37.668;2023-04-06T00:16:44;100165.03;;;4.83;69.47
45369;BME280;51342;55.250;37.668;2023-04-06T00:19:16;100165.53;;;4.78;69.69
45369;BME280;51342;55.250;37.668;2023-04-06T00:21:47;100170.53;;;4.77;69.53
45369;BME280;51342;55.250;37.668;2023-04-06T00:24:19;100171.91;;;4.73;70.03
45369;BME280;51342;55.250;37.668;2023-04-06T00:26:50;100179.19;;;4.69;70.07
45369;BME280;51342;55.250;37.668;2023-04-06T00:29:22;100174.72;;;4.66;70.25
45369;BME280;51342;55.250;37.668;2023-04-06T00:31:53;100170.06;;;4.62;70.01
45369;BME280;51342;55.250;37.668;2023-04-06T00:34:25;100169.66;;;4.58;70.33
45369;BME280;51342;55.250;37.668;2023-04-06T00:36:56;100171.34;;;4.57;70.25
45369;BME280;51342;55.250;37.668;2023-04-06T00:39:28;100171.09;;;4.54;70.10
45369;BME280;51342;55.250;37.668;2023-04-06T00:42:00;100177.84;;;4.53;70.26
45369;BME280;51342;55.250;37.668;2023-04-06T00:44:34;100174.91;;;4.49;70.36
45369;BME280;51342;55.250;37.668;2023-04-06T00:47:05;100184.84;;;4.46;70.56
45369;BME280;51342;55.250;37.668;2023-04-06T00:49:37;100173.72;;;4.45;70.53
45369;BME280;51342;55.250;37.668;2023-04-06T00:52:08;100181.13;;;4.42;70.78
45369;BME280;51342;55.250;37.668;2023-04-06T00:54:40;100180.84;;;4.39;70.83
45369;BME280;51342;55.250;37.668;2023-04-06T00:57:13;100184.31;;;4.40;70.71
45369;BME280;51342;55.250;37.668;2023-04-06T00:59:46;100195.19;;;4.37;70.79
45369;BME280;51342;55.250;37.668;2023-04-06T01:02:19;100186.03;;;4.31;70.94
45369;BME280;51342;55.250;37.668;2023-04-06T01:04:53;100192.69;;;4.29;70.81
45369;BME280;51342;55.250;37.668;2023-04-06T01:07:32;100193.47;;;4.28;71.03
45369;BME280;51342;55.250;37.668;2023-04-06T01:10:25;100192.03;;;4.21;70.92
45369;BME280;51342;55.250;37.668;2023-04-06T01:13:02;100185.72;;;4.17;71.18
45369;BME280;51342;55.250;37.668;2023-04-06T01:15:49;100193.53;;;4.19;71.27
45369;BME280;51342;55.250;37.668;2023-04-06T01:18:26;100193.75;;;3.93;71.42
45369;BME280;51342;55.250;37.668;2023-04-06T01:21:04;100190.34;;;4.03;71.24
45369;BME280;51342;55.250;37.668;2023-04-06T01:23:35;100184.75;;;4.07;71.15
45369;BME280;51342;55.250;37.668;2023-04-06T01:26:08;100189.09;;;4.08;71.22
45369;BME280;51342;55.250;37.668;2023-04-06T01:28:39;100182.19;;;4.07;71.57
45369;BME280;51342;55.250;37.668;2023-04-06T01:31:21;100184.63;;;4.05;71.38
45369;BME280;51342;55.250;37.668;2023-04-06T01:33:57;100184.50;;;4.04;71.37
45369;BME280;51342;55.250;37.668;2023-04-06T01:36:30;100176.25;;;3.97;71.35
45369;BME280;51342;55.250;37.668;2023-04-06T01:39:11;100185.88;;;4.00;71.68
45369;BME280;51342;55.250;37.668;2023-04-06T01:41:44;100186.63;;;3.99;71.59
45369;BME280;51342;55.250;37.668;2023-04-06T01:44:19;100181.09;;;3.94;71.65
45369;BME280;51342;55.250;37.668;2023-04-06T01:46:56;100187.56;;;3.91;71.44
45369;BME280;51342;55.250;37.668;2023-04-06T01:49:28;100183.84;;;3.87;71.65
45369;BME280;51342;55.250;37.668;2023-04-06T01:52:00;100181.78;;;3.83;71.77
45369;BME280;51342;55.250;37.668;2023-04-06T01:54:32;100177.28;;;3.81;71.76
45369;BME280;51342;55.250;37.668;2023-04-06T01:57:19;100171.75;;;3.76;72.22
45369;BME280;51342;55.250;37.668;2023-04-06T02:00:01;100184.41;;;3.75;71.93
45369;BME280;51342;55.250;37.668;2023-04-06T02:02:44;100188.34;;;3.71;71.92
45369;BME280;51342;55.250;37.668;2023-04-06T02:05:23;100184.59;;;3.67;72.31
45369;BME280;51342;55.250;37.668;2023-04-06T02:07:57;100189.44;;;3.64;72.29
45369;BME280;51342;55.250;37.668;2023-04-06T02:10:36;100186.13;;;3.65;72.34
45369;BME280;51342;55.250;37.668;2023-04-06T02:13:15;100182.22;;;3.60;72.38
45369;BME280;51342;55.250;37.668;2023-04-06T02:15:52;100179.56;;;3.50;72.49
45369;BME280;51342;55.250;37.668;2023-04-06T02:18:24;100188.88;;;3.58;72.51
45369;BME280;51342;55.250;37.668;2023-04-06T02:20:56;100192.16;;;3.57;72.47
45369;BME280;51342;55.250;37.668;2023-04-06T02:23:27;100202.13;;;3.54;72.74
45369;BME280;51342;55.250;37.668;2023-04-06T02:26:01;100201.56;;;3.48;72.66
45369;BME280;51342;55.250;37.668;2023-04-06T02:28:33;100197.81;;;3.44;73.06
45369;BME280;51342;55.250;37.668;2023-04-06T02:31:06;100200.38;;;3.44;73.06
45369;BME280;51342;55.250;37.668;2023-04-06T02:33:37;100204.72;;;3.45;72.86
45369;BME280;51342;55.250;37.668;2023-04-06T02:36:09;100204.59;;;3.44;72.95
45369;BME280;51342;55.250;37.668;2023-04-06T02:38:40;100193.78;;;3.38;72.95
45369;BME280;51342;55.250;37.668;2023-04-06T02:41:12;100197.25;;;3.38;72.97
45369;BME280;51342;55.250;37.668;2023-04-06T02:43:43;100199.38;;;3.34;73.32
45369;BME280;51342;55.250;37.668;2023-04-06T02:46:35;100194.44;;;3.27;73.27
45369;BME280;51342;55.250;37.668;2023-04-06T02:49:08;100202.88;;;3.26;73.33
45369;BME280;51342;55.250;37.668;2023-04-06T02:51:40;100204.41;;;3.24;73.64
45369;BME280;51342;55.250;37.668;2023-04-06T02:54:22;100200.91;;;3.23;73.73
45369;BME280;51342;55.250;37.668;2023-04-06T02:56:54;100199.63;;;3.18;73.46
45369;BME280;51342;55.250;37.668;2023-04-06T02:59:27;100213.69;;;3.23;73.63
45369;BME280;51342;55.250;37.668;2023-04-06T03:02:28;100214.03;;;3.17;73.76
45369;BME280;51342;55.250;37.668;2023-04-06T03:05:08;100217.34;;;3.16;73.67
45369;BME280;51342;55.250;37.668;2023-04-06T03:07:45;100220.22;;;3.19;74.00
45369;BME280;51342;55.250;37.668;2023-04-06T03:10:30;100227.56;;;3.16;73.78
45369;BME280;51342;55.250;37.668;2023-04-06T03:13:01;100223.09;;;3.14;74.07
45369;BME280;51342;55.250;37.668;2023-04-06T03:15:51;100226.53;;;3.14;74.20
45369;BME280;51342;55.250;37.668;2023-04-06T03:18:25;100225.97;;;3.08;74.28
45369;BME280;51342;55.250;37.668;2023-04-06T03:20:58;100229.69;;;3.12;74.06
45369;BME280;51342;55.250;37.668;2023-04-06T03:23:39;100240.09;;;3.13;74.29
45369;BME280;51342;55.250;37.668;2023-04-06T03:26:11;100229.69;;;3.12;74.25
45369;BME280;51342;55.250;37.668;2023-04-06T03:28:42;100237.53;;;3.13;74.15
45369;BME280;51342;55.250;37.668;2023-04-06T03:31:14;100234.22;;;3.14;74.02
45369;BME280;51342;55.250;37.668;2023-04-06T03:33:50;100237.78;;;3.16;74.16
45369;BME280;51342;55.250;37.668;2023-04-06T03:36:27;100241.41;;;3.18;74.32
45369;BME280;51342;55.250;37.668;2023-04-06T03:39:01;100240.03;;;3.22;74.17
45369;BME280;51342;55.250;37.668;2023-04-06T03:41:32;100248.47;;;3.21;74.00
45369;BME280;51342;55.250;37.668;2023-04-06T03:44:14;100249.50;;;3.23;74.39
45369;BME280;51342;55.250;37.668;2023-04-06T03:46:45;100250.09;;;3.29;74.25
45369;BME280;51342;55.250;37.668;2023-04-06T03:49:17;100251.84;;;3.39;74.05
45369;BME280;51342;55.250;37.668;2023-04-06T03:51:52;100250.44;;;3.51;73.90
45369;BME280;51342;55.250;37.668;2023-04-06T03:54:24;100252.50;;;3.64;73.79
45369;BME280;51342;55.250;37.668;2023-04-06T03:56:57;100249.28;;;3.75;73.39
45369;BME280;51342;55.250;37.668;2023-04-06T03:59:31;100250.75;;;3.82;73.02
45369;BME280;51342;55.250;37.668;2023-04-06T04:02:02;100250.53;;;3.89;73.11
45369;BME280;51342;55.250;37.668;2023-04-06T04:04:34;100251.66;;;4.01;72.76
45369;BME280;51342;55.250;37.668;2023-04-06T04:07:06;100254.78;;;4.07;72.28
45369;BME280;51342;55.250;37.668;2023-04-06T04:09:37;100259.84;;;4.16;72.36
45369;BME280;51342;55.250;37.668;2023-04-06T04:12:09;100252.38;;;4.28;72.00
45369;BME280;51342;55.250;37.668;2023-04-06T04:14:40;100255.75;;;4.37;71.85
45369;BME280;51342;55.250;37.668;2023-04-06T04:17:12;100253.47;;;4.40;71.59
45369;BME280;51342;55.250;37.668;2023-04-06T04:19:43;100255.22;;;4.49;71.28
45369;BME280;51342;55.250;37.668;2023-04-06T04:22:15;100250.16;;;4.60;70.71
45369;BME280;51342;55.250;37.668;2023-04-06T04:24:47;100254.94;;;4.65;71.23
45369;BME280;51342;55.250;37.668;2023-04-06T04:27:19;100255.47;;;4.71;70.58
45369;BME280;51342;55.250;37.668;2023-04-06T04:29:54;100251.66;;;4.76;70.48
45369;BME280;51342;55.250;37.668;2023-04-06T04:32:25;100254.41;;;4.88;70.24
45369;BME280;51342;55.250;37.668;2023-04-06T04:34:59;100258.25;;;4.93;69.62
45369;BME280;51342;55.250;37.668;2023-04-06T04:37:42;100262.47;;;4.93;69.51
45369;BME280;51342;55.250;37.668;2023-04-06T04:40:15;100256.31;;;4.91;69.63
45369;BME280;51342;55.250;37.668;2023-04-06T04:42:56;100256.25;;;4.99;69.25
45369;BME280;51342;55.250;37.668;2023-04-06T04:45:35;100256.50;;;5.02;68.93
45369;BME280;51342;55.250;37.668;2023-04-06T04:48:22;100242.00;;;5.03;69.16
45369;BME280;51342;55.250;37.668;2023-04-06T04:51:25;100248.81;;;5.02;68.52
45369;BME280;51342;55.250;37.668;2023-04-06T04:54:15;100249.09;;;5.05;68.75
45369;BME280;51342;55.250;37.668;2023-04-06T04:56:47;100254.75;;;5.12;67.97
45369;BME280;51342;55.250;37.668;2023-04-06T04:59:39;100262.69;;;5.15;67.94
45369;BME280;51342;55.250;37.668;2023-04-06T05:02:29;100250.84;;;5.36;68.09
45369;BME280;51342;55.250;37.668;2023-04-06T05:05:15;100261.75;;;5.43;67.37
45369;BME280;51342;55.250;37.668;2023-04-06T05:07:47;100256.78;;;5.45;66.97
45369;BME280;51342;55.250;37.668;2023-04-06T05:10:29;100257.03;;;5.48;67.00
45369;BME280;51342;55.250;37.668;2023-04-06T05:13:04;100256.28;;;5.59;66.77
45369;BME280;51342;55.250;37.668;2023-04-06T05:15:36;100257.31;;;5.61;66.57
45369;BME280;51342;55.250;37.668;2023-04-06T05:18:22;100258.50;;;5.75;67.07
45369;BME280;51342;55.250;37.668;2023-04-06T05:20:54;100256.56;;;5.82;66.14
45369;BME280;51342;55.250;37.668;2023-04-06T05:23:32;100259.94;;;5.92;66.10
45369;BME280;51342;55.250;37.668;2023-04-06T05:26:06;100261.09;;;5.95;65.80
45369;BME280;51342;55.250;37.668;2023-04-06T05:28:37;100250.97;;;5.97;65.50
45369;BME280;51342;55.250;37.668;2023-04-06T05:31:10;100249.81;;;6.03;66.02
45369;BME280;51342;55.250;37.668;2023-04-06T05:33:49;100262.50;;;6.12;65.83
45369;BME280;51342;55.250;37.668;2023-04-06T05:36:29;100255.47;;;6.09;65.28
45369;BME280;51342;55.250;37.668;2023-04-06T05:39:02;100262.00;;;6.06;65.26
45369;BME280;51342;55.250;37.668;2023-04-06T05:41:45;100247.13;;;6.02;65.27
45369;BME280;51342;55.250;37.668;2023-04-06T05:44:18;100254.28;;;6.06;65.18
45369;BME280;51342;55.250;37.668;2023-04-06T05:46:54;100248.13;;;6.04;64.85
45369;BME280;51342;55.250;37.668;2023-04-06T05:49:26;100257.38;;;6.12;64.67
45369;BME280;51342;55.250;37.668;2023-04-06T05:51:57;100265.34;;;6.15;64.79
45369;BME280;51342;55.250;37.668;2023-04-06T05:54:29;100260.31;;;6.27;64.86
45369;BME280;51342;55.250;37.668;2023-04-06T05:57:05;100257.09;;;6.40;64.26
45369;BME280;51342;55.250;37.668;2023-04-06T05:59:36;100263.50;;;6.55;64.45
45369;BME280;51342;55.250;37.668;2023-04-06T06:02:08;100265.00;;;6.73;63.87
45369;BME280;51342;55.250;37.668;2023-04-06T06:04:47;100259.94;;;6.85;63.21
45369;BME280;51342;55.250;37.668;2023-04-06T06:07:20;100260.56;;;6.93;63.44
45369;BME280;51342;55.250;37.668;2023-04-06T06:09:59;100260.88;;;7.07;62.92
45369;BME280;51342;55.250;37.668;2023-04-06T06:12:36;100259.56;;;7.12;62.23
45369;BME280;51342;55.250;37.668;2023-04-06T06:15:08;100255.09;;;7.10;62.71
45369;BME280;51342;55.250;37.668;2023-04-06T06:17:43;100257.50;;;7.18;62.24
45369;BME280;51342;55.250;37.668;2023-04-06T06:20:16;100251.00;;;7.34;62.16
45369;BME280;51342;55.250;37.668;2023-04-06T06:22:48;100249.91;;;7.42;61.39
45369;BME280;51342;55.250;37.668;2023-04-06T06:25:24;100261.81;;;7.52;61.25
45369;BME280;51342;55.250;37.668;2023-04-06T06:27:56;100262.19;;;7.56;60.88
45369;BME280;51342;55.250;37.668;2023-04-06T06:30:28;100257.16;;;7.58;60.42
45369;BME280;51342;55.250;37.668;2023-04-06T06:32:59;100258.16;;;7.60;61.08
45369;BME280;51342;55.250;37.668;2023-04-06T06:35:32;100263.91;;;7.67;60.75
45369;BME280;51342;55.250;37.668;2023-04-06T06:38:07;100259.00;;;7.70;60.77
45369;BME280;51342;55.250;37.668;2023-04-06T06:40:40;100258.47;;;7.75;60.19
45369;BME280;51342;55.250;37.668;2023-04-06T06:43:12;100260.91;;;7.73;59.75
45369;BME280;51342;55.250;37.668;2023-04-06T06:46:03;100253.31;;;7.75;59.74
45369;BME280;51342;55.250;37.668;2023-04-06T06:48:34;100258.81;;;7.79;59.45
45369;BME280;51342;55.250;37.668;2023-04-06T06:51:06;100255.28;;;7.89;59.35
45369;BME280;51342;55.250;37.668;2023-04-06T06:53:37;100258.09;;;8.04;59.72
45369;BME280;51342;55.250;37.668;2023-04-06T06:56:09;100255.81;;;8.18;59.15
45369;BME280;51342;55.250;37.668;2023-04-06T06:58:40;100255.81;;;8.30;58.99
45369;BME280;51342;55.250;37.668;2023-04-06T07:01:12;100258.56;;;8.43;59.10
45369;BME280;51342;55.250;37.668;2023-04-06T07:03:44;100254.00;;;8.51;58.25
45369;BME280;51342;55.250;37.668;2023-04-06T07:06:15;100252.88;;;8.59;57.88
45369;BME280;51342;55.250;37.668;2023-04-06T07:08:46;100259.03;;;8.73;57.93
45369;BME280;51342;55.250;37.668;2023-04-06T07:11:18;100246.69;;;8.81;57.36
45369;BME280;51342;55.250;37.668;2023-04-06T07:13:50;100253.84;;;8.85;57.09
45369;BME280;51342;55.250;37.668;2023-04-06T07:16:21;100255.22;;;8.91;56.55
45369;BME280;51342;55.250;37.668;2023-04-06T07:18:53;100249.81;;;9.00;56.77
45369;BME280;51342;55.250;37.668;2023-04-06T07:21:24;100249.34;;;9.17;56.45
45369;BME280;51342;55.250;37.668;2023-04-06T07:23:56;100248.31;;;9.27;56.28
45369;BME280;51342;55.250;37.668;2023-04-06T07:26:27;100250.53;;;9.34;55.95
45369;BME280;51342;55.250;37.668;2023-04-06T07:28:59;100252.56;;;9.38;55.49
45369;BME280;51342;55.250;37.668;2023-04-06T07:31:31;100240.88;;;9.43;55.86
45369;BME280;51342;55.250;37.668;2023-04-06T07:34:02;100236.31;;;9.52;54.93
45369;BME280;51342;55.250;37.668;2023-04-06T07:36:34;100247.63;;;9.66;55.43
45369;BME280;51342;55.250;37.668;2023-04-06T07:39:07;100238.84;;;9.76;55.61
45369;BME280;51342;55.250;37.668;2023-04-06T07:41:40;100244.84;;;9.88;54.57
45369;BME280;51342;55.250;37.668;2023-04-06T07:44:12;100251.81;;;9.89;54.50
45369;BME280;51342;55.250;37.668;2023-04-06T07:46:43;100250.44;;;9.94;54.37
45369;BME280;51342;55.250;37.668;2023-04-06T07:49:15;100236.00;;;9.98;53.88
45369;BME280;51342;55.250;37.668;2023-04-06T07:51:46;100235.25;;;9.99;53.38
45369;BME280;51342;55.250;37.668;2023-04-06T07:54:18;100243.59;;;10.08;53.04
45369;BME280;51342;55.250;37.668;2023-04-06T07:56:50;100243.81;;;10.11;53.58
45369;BME280;51342;55.250;37.668;2023-04-06T07:59:21;100248.38;;;10.27;54.00
45369;BME280;51342;55.250;37.668;2023-04-06T08:01:53;100230.69;;;10.46;53.68
45369;BME280;51342;55.250;37.668;2023-04-06T08:04:24;100230.00;;;10.62;53.25
45369;BME280;51342;55.250;37.668;2023-04-06T08:06:55;100243.84;;;10.76;52.55
45369;BME280;51342;55.250;37.668;2023-04-06T08:09:27;100240.44;;;10.77;51.76
45369;BME280;51342;55.250;37.668;2023-04-06T08:12:10;100233.31;;;10.73;51.68
45369;BME280;51342;55.250;37.668;2023-04-06T08:14:42;100238.88;;;10.79;51.56
45369;BME280;51342;55.250;37.668;2023-04-06T08:17:26;100238.88;;;10.79;51.26
45369;BME280;51342;55.250;37.668;2023-04-06T08:20:01;100237.34;;;10.82;50.78
45369;BME280;51342;55.250;37.668;2023-04-06T08:22:46;100234.28;;;10.88;51.71
45369;BME280;51342;55.250;37.668;2023-04-06T08:25:29;100222.22;;;11.02;50.45
45369;BME280;51342;55.250;37.668;2023-04-06T08:28:25;100235.06;;;11.13;50.84
45369;BME280;51342;55.250;37.668;2023-04-06T08:31:08;100220.50;;;11.15;50.74
45369;BME280;51342;55.250;37.668;2023-04-06T08:33:40;100228.94;;;11.26;50.08
45369;BME280;51342;55.250;37.668;2023-04-06T08:36:23;100234.59;;;11.34;49.67
45369;BME280;51342;55.250;37.668;2023-04-06T08:38:54;100226.31;;;11.39;49.66
45369;BME280;51342;55.250;37.668;2023-04-06T08:41:53;100222.44;;;11.46;49.35
45369;BME280;51342;55.250;37.668;2023-04-06T08:44:28;100219.41;;;11.53;49.17
45369;BME280;51342;55.250;37.668;2023-04-06T08:47:01;100231.34;;;11.64;49.34
45369;BME280;51342;55.250;37.668;2023-04-06T08:49:37;100219.13;;;11.77;48.90
45369;BME280;51342;55.250;37.668;2023-04-06T08:52:10;100225.06;;;11.89;48.60
45369;BME280;51342;55.250;37.668;2023-04-06T08:54:42;100221.34;;;11.99;47.55
45369;BME280;51342;55.250;37.668;2023-04-06T08:57:45;100222.97;;;12.11;48.23
45369;BME280;51342;55.250;37.668;2023-04-06T09:00:41;100218.94;;;12.16;47.49
45369;BME280;51342;55.250;37.668;2023-04-06T09:03:43;100222.72;;;12.22;47.41
45369;BME280;51342;55.250;37.668;2023-04-06T09:06:28;100232.47;;;12.26;47.47
45369;BME280;51342;55.250;37.668;2023-04-06T09:09:12;100211.88;;;12.29;46.08
45369;BME280;51342;55.250;37.668;2023-04-06T09:11:56;100217.69;;;12.39;46.29
45369;BME280;51342;55.250;37.668;2023-04-06T09:14:38;100229.88;;;12.40;45.96
45369;BME280;51342;55.250;37.668;2023-04-06T09:17:20;100210.81;;;12.40;45.95
45369;BME280;51342;55.250;37.668;2023-04-06T09:19:52;100203.44;;;12.47;45.21
45369;BME280;51342;55.250;37.668;2023-04-06T09:22:24;100212.59;;;12.56;45.41
45369;BME280;51342;55.250;37.668;2023-04-06T09:25:09;100192.91;;;12.59;45.53
45369;BME280;51342;55.250;37.668;2023-04-06T09:27:41;100210.97;;;12.72;45.02
45369;BME280;51342;55.250;37.668;2023-04-06T09:30:14;100215.53;;;12.77;44.78
45369;BME280;51342;55.250;37.668;2023-04-06T09:32:53;100211.84;;;12.73;44.52
45369;BME280;51342;55.250;37.668;2023-04-06T09:35:25;100210.78;;;12.69;44.60
45369;BME280;51342;55.250;37.668;2023-04-06T09:37:58;100208.00;;;12.66;44.98
45369;BME280;51342;55.250;37.668;2023-04-06T09:40:30;100209.88;;;12.69;44.47
45369;BME280;51342;55.250;37.668;2023-04-06T09:43:22;100201.53;;;12.74;44.49
45369;BME280;51342;55.250;37.668;2023-04-06T09:45:55;100206.19;;;12.80;44.88
45369;BME280;51342;55.250;37.668;2023-04-06T09:48:29;100202.22;;;12.87;44.39
45369;BME280;51342;55.250;37.668;2023-04-06T09:51:03;100201.78;;;12.94;44.67
45369;BME280;51342;55.250;37.668;2023-04-06T09:53:52;100200.50;;;13.02;44.26
45369;BME280;51342;55.250;37.668;2023-04-06T10:08:05;100198.91;;;13.20;43.58
45369;BME280;51342;55.250;37.668;2023-04-06T10:10:38;100187.91;;;13.24;43.36
45369;BME280;51342;55.250;37.668;2023-04-06T10:13:11;100191.47;;;13.26;42.54
45369;BME280;51342;55.250;37.668;2023-04-06T10:15:43;100190.69;;;13.28;43.32
45369;BME280;51342;55.250;37.668;2023-04-06T10:18:15;100181.41;;;13.33;43.07
45369;BME280;51342;55.250;37.668;2023-04-06T10:21:09;100191.50;;;13.43;44.50
45369;BME280;51342;55.250;37.668;2023-04-06T10:23:46;100187.81;;;13.56;43.17
45369;BME280;51342;55.250;37.668;2023-04-06T10:26:22;100186.88;;;13.53;42.57
45369;BME280;51342;55.250;37.668;2023-04-06T10:28:54;100170.38;;;13.53;42.92
45369;BME280;51342;55.250;37.668;2023-04-06T10:31:39;100179.72;;;13.66;41.93
45369;BME280;51342;55.250;37.668;2023-04-06T10:34:12;100190.22;;;13.67;42.09
45369;BME280;51342;55.250;37.668;2023-04-06T10:36:45;100185.00;;;13.67;41.49
45369;BME280;51342;55.250;37.668;2023-04-06T10:39:24;100189.84;;;13.61;42.04
45369;BME280;51342;55.250;37.668;2023-04-06T10:42:06;100181.16;;;13.61;42.08
45369;BME280;51342;55.250;37.668;2023-04-06T10:44:42;100176.06;;;13.62;41.47
45369;BME280;51342;55.250;37.668;2023-04-06T10:47:17;100165.81;;;13.65;41.84
45369;BME280;51342;55.250;37.668;2023-04-06T10:50:01;100191.09;;;13.68;41.78
45369;BME280;51342;55.250;37.668;2023-04-06T10:52:32;100178.25;;;13.71;41.22
45369;BME280;51342;55.250;37.668;2023-04-06T10:55:04;100177.22;;;13.67;41.10
45369;BME280;51342;55.250;37.668;2023-04-06T10:57:37;100185.16;;;13.70;41.73
45369;BME280;51342;55.250;37.668;2023-04-06T11:00:10;100188.06;;;13.76;41.44
45369;BME280;51342;55.250;37.668;2023-04-06T11:02:42;100170.94;;;13.80;40.76
45369;BME280;51342;55.250;37.668;2023-04-06T11:05:14;100180.44;;;13.79;40.98
45369;BME280;51342;55.250;37.668;2023-04-06T11:07:46;100177.16;;;13.84;41.14
45369;BME280;51342;55.250;37.668;2023-04-06T11:10:23;100172.31;;;13.90;41.26
45369;BME280;51342;55.250;37.668;2023-04-06T11:12:55;100174.19;;;13.76;41.50
45369;BME280;51342;55.250;37.668;2023-04-06T11:15:33;100169.16;;;13.79;41.71
45369;BME280;51342;55.250;37.668;2023-04-06T11:18:05;100189.13;;;13.96;41.53
45369;BME280;51342;55.250;37.668;2023-04-06T11:20:36;100180.81;;;14.03;41.55
45369;BME280;51342;55.250;37.668;2023-04-06T11:23:08;100175.84;;;14.08;41.10
45369;BME280;51342;55.250;37.668;2023-04-06T11:25:50;100184.63;;;14.10;40.94
45369;BME280;51342;55.250;37.668;2023-04-06T11:28:21;100184.69;;;14.12;40.63
45369;BME280;51342;55.250;37.668;2023-04-06T11:30:53;100183.06;;;14.14;40.60
45369;BME280;51342;55.250;37.668;2023-04-06T11:33:24;100184.69;;;14.12;39.83
45369;BME280;51342;55.250;37.668;2023-04-06T11:35:59;100169.75;;;14.08;41.01
45369;BME280;51342;55.250;37.668;2023-04-06T11:38:30;100170.13;;;14.15;40.21
45369;BME280;51342;55.250;37.668;2023-04-06T11:41:02;100179.72;;;14.16;40.58
45369;BME280;51342;55.250;37.668;2023-04-06T11:43:33;100169.25;;;14.15;40.08
45369;BME280;51342;55.250;37.668;2023-04-06T11:46:05;100168.34;;;14.14;40.66
45369;BME280;51342;55.250;37.668;2023-04-06T11:48:44;100171.19;;;14.19;41.15
45369;BME280;51342;55.250;37.668;2023-04-06T11:51:22;100166.88;;;14.19;40.61
45369;BME280;51342;55.250;37.668;2023-04-06T11:53:55;100163.75;;;14.26;40.32
45369;BME280;51342;55.250;37.668;2023-04-06T11:56:28;100163.09;;;14.30;40.03
45369;BME280;51342;55.250;37.668;2023-04-06T11:59:03;100168.44;;;14.33;40.25
45369;BME280;51342;55.250;37.668;2023-04-06T12:01:44;100171.56;;;14.26;40.42
45369;BME280;51342;55.250;37.668;2023-04-06T12:04:16;100170.59;;;14.24;40.04
45369;BME280;51342;55.250;37.668;2023-04-06T12:06:48;100167.91;;;14.23;39.67
45369;BME280;51342;55.250;37.668;2023-04-06T12:09:20;100160.84;;;14.20;40.00
45369;BME280;51342;55.250;37.668;2023-04-06T12:11:52;100168.00;;;14.24;39.94
45369;BME280;51342;55.250;37.668;2023-04-06T12:14:23;100169.91;;;14.28;39.84
45369;BME280;51342;55.250;37.668;2023-04-06T12:16:55;100157.66;;;14.26;40.14
45369;BME280;51342;55.250;37.668;2023-04-06T12:19:26;100159.38;;;14.25;38.92
45369;BME280;51342;55.250;37.668;2023-04-06T12:21:58;100159.44;;;14.27;39.77
45369;BME280;51342;55.250;37.668;2023-04-06T12:24:29;100156.59;;;14.22;39.80
45369;BME280;51342;55.250;37.668;2023-04-06T12:27:01;100158.31;;;14.22;39.93
45369;BME280;51342;55.250;37.668;2023-04-06T12:29:32;100153.94;;;14.21;39.94
45369;BME280;51342;55.250;37.668;2023-04-06T12:32:04;100157.41;;;14.21;39.35
45369;BME280;51342;55.250;37.668;2023-04-06T12:34:37;100150.38;;;14.19;39.61
45369;BME280;51342;55.250;37.668;2023-04-06T12:37:09;100159.78;;;14.17;39.84
45369;BME280;51342;55.250;37.668;2023-04-06T12:39:52;100152.81;;;14.16;39.41
45369;BME280;51342;55.250;37.668;2023-04-06T12:42:23;100149.63;;;14.21;40.85
45369;BME280;51342;55.250;37.668;2023-04-06T12:44:55;100139.28;;;14.23;39.91
45369;BME280;51342;55.250;37.668;2023-04-06T12:47:27;100152.16;;;14.20;39.74
45369;BME280;51342;55.250;37.668;2023-04-06T12:49:58;100141.00;;;14.22;39.57
45369;BME280;51342;55.250;37.668;2023-04-06T12:52:30;100145.31;;;14.22;39.77
45369;BME280;51342;55.250;37.668;2023-04-06T12:55:03;100148.78;;;14.22;40.18
45369;BME280;51342;55.250;37.668;2023-04-06T12:57:48;100152.22;;;14.21;39.38
45369;BME280;51342;55.250;37.668;2023-04-06T13:00:20;100144.03;;;14.14;39.19
45369;BME280;51342;55.250;37.668;2023-04-06T13:02:51;100149.72;;;14.06;39.96
45369;BME280;51342;55.250;37.668;2023-04-06T13:05:23;100147.22;;;14.08;39.66
45369;BME280;51342;55.250;37.668;2023-04-06T13:07:54;100145.59;;;14.10;39.19
45369;BME280;51342;55.250;37.668;2023-04-06T13:10:26;100141.28;;;14.11;39.41
45369;BME280;51342;55.250;37.668;2023-04-06T13:12:57;100142.91;;;14.09;39.29
45369;BME280;51342;55.250;37.668;2023-04-06T13:15:41;100138.28;;;14.03;39.51
45369;BME280;51342;55.250;37.668;2023-04-06T13:18:13;100140.97;;;14.04;39.33
45369;BME280;51342;55.250;37.668;2023-04-06T13:20:46;100149.59;;;14.03;39.38
45369;BME280;51342;55.250;37.668;2023-04-06T13:23:20;100138.00;;;13.97;38.63
45369;BME280;51342;55.250;37.668;2023-04-06T13:26:18;100137.50;;;13.88;39.07
45369;BME280;51342;55.250;37.668;2023-04-06T13:29:01;100135.91;;;13.90;39.41
45369;BME280;51342;55.250;37.668;2023-04-06T13:31:33;100142.56;;;13.85;38.86
45369;BME280;51342;55.250;37.668;2023-04-06T13:34:17;100134.53;;;13.80;38.74
45369;BME280;51342;55.250;37.668;2023-04-06T13:37:00;100144.84;;;13.78;37.96
45369;BME280;51342;55.250;37.668;2023-04-06T13:39:44;100136.88;;;13.75;38.25
45369;BME280;51342;55.250;37.668;2023-04-06T13:42:15;100136.88;;;13.75;38.13